createdAt,value
2018-04-15T00:00:09.730Z,79.99
2018-04-15T00:02:37.260Z,80.26
2018-04-15T00:05:04.818Z,80.39
2018-04-15T00:07:32.381Z,80.45
2018-04-15T00:09:59.890Z,80.34
2018-04-15T00:12:27.428Z,80.26
2018-04-15T00:14:55.273Z,80.29
2018-04-15T00:17:22.806Z,79.90
2018-04-15T00:19:50.589Z,79.18
2018-04-15T00:22:18.888Z,79.44
2018-04-15T00:24:46.455Z,78.73
2018-04-15T00:27:13.996Z,78.57
2018-04-15T00:29:41.541Z,78.81
2018-04-15T00:32:09.111Z,78.72
2018-04-15T00:34:36.678Z,78.59
2018-04-15T00:37:04.236Z,78.76
2018-04-15T00:39:31.779Z,78.82
2018-04-15T00:41:59.318Z,78.73
2018-04-15T00:44:26.850Z,79.14
2018-04-15T00:46:54.423Z,79.01
2018-04-15T00:49:21.961Z,79.20
2018-04-15T00:51:49.490Z,79.18
2018-04-15T00:54:18.002Z,78.95
2018-04-15T00:56:45.598Z,79.10
2018-04-15T00:59:13.156Z,79.18
2018-04-15T01:01:40.715Z,78.65
2018-04-15T01:04:08.527Z,78.70
2018-04-15T01:06:36.070Z,78.90
2018-04-15T01:09:03.602Z,79.06
2018-04-15T01:11:31.215Z,78.96
2018-04-15T01:13:59.027Z,79.05
2018-04-15T01:16:26.979Z,78.96
2018-04-15T01:18:54.618Z,78.60
2018-04-15T01:21:22.146Z,78.14
2018-04-15T01:23:50.035Z,77.79
2018-04-15T01:26:18.250Z,78.59
2018-04-15T01:28:45.823Z,78.64
2018-04-15T01:31:13.378Z,78.63
2018-04-15T01:33:40.941Z,78.55
2018-04-15T01:36:08.753Z,78.23
2018-04-15T01:38:36.306Z,78.25
2018-04-15T01:41:03.822Z,78.05
2018-04-15T01:43:31.382Z,77.97
2018-04-15T01:45:58.907Z,78.14
2018-04-15T01:48:26.443Z,78.07
2018-04-15T01:50:54.162Z,77.79
2018-04-15T01:53:21.681Z,77.81
2018-04-15T01:55:49.282Z,77.96
2018-04-15T01:58:16.811Z,78.15
2018-04-15T02:00:44.331Z,78.06
2018-04-15T02:03:11.906Z,78.09
2018-04-15T02:05:39.428Z,77.90
2018-04-15T02:08:07.835Z,78.05
2018-04-15T02:10:35.943Z,78.16
2018-04-15T02:13:03.584Z,78.13
2018-04-15T02:15:31.124Z,78.40
2018-04-15T02:17:58.660Z,78.40
2018-04-15T02:20:26.818Z,78.19
2018-04-15T02:22:54.346Z,78.13
2018-04-15T02:25:21.929Z,78.50
2018-04-15T02:27:49.468Z,79.06
2018-04-15T02:30:17.000Z,78.33
2018-04-15T02:32:44.564Z,78.79
2018-04-15T02:35:12.086Z,78.57
2018-04-15T02:37:39.608Z,78.67
2018-04-15T02:40:07.154Z,78.31
2018-04-15T02:42:34.692Z,78.28
2018-04-15T02:45:02.356Z,78.29
2018-04-15T02:47:29.976Z,78.47
2018-04-15T02:49:57.501Z,78.44
2018-04-15T02:52:25.048Z,78.35
2018-04-15T02:54:52.850Z,78.49
2018-04-15T02:57:20.476Z,78.89
2018-04-15T02:59:47.990Z,78.73
2018-04-15T03:02:15.504Z,78.92
2018-04-15T03:04:43.063Z,78.88
2018-04-15T03:07:10.603Z,78.88
2018-04-15T03:09:38.159Z,78.90
2018-04-15T03:12:05.684Z,78.92
2018-04-15T03:14:33.228Z,79.01
2018-04-15T03:17:00.752Z,79.21
2018-04-15T03:19:28.275Z,79.44
2018-04-15T03:21:55.832Z,79.35
2018-04-15T03:24:23.456Z,79.20
2018-04-15T03:26:50.982Z,79.40
2018-04-15T03:29:18.516Z,79.25
2018-04-15T03:31:46.038Z,79.47
2018-04-15T03:34:13.590Z,79.26
2018-04-15T03:36:41.138Z,79.72
2018-04-15T03:39:08.681Z,79.50
2018-04-15T03:41:36.261Z,79.58
2018-04-15T03:44:03.789Z,79.47
2018-04-15T03:46:31.342Z,79.53
2018-04-15T03:48:58.873Z,79.97
2018-04-15T03:51:26.399Z,79.83
2018-04-15T03:53:53.932Z,80.05
2018-04-15T03:56:21.450Z,79.93
2018-04-15T03:58:49.005Z,79.97
2018-04-15T04:01:16.520Z,79.76
2018-04-15T04:03:44.026Z,79.91
2018-04-15T04:06:11.562Z,80.09
2018-04-15T04:08:39.113Z,79.97
2018-04-15T04:11:06.688Z,80.28
2018-04-15T04:13:34.410Z,80.22
2018-04-15T04:16:01.962Z,80.35
2018-04-15T04:21:43.502Z,80.40
2018-04-15T04:24:22.869Z,80.37
2018-04-15T04:26:50.428Z,80.39
2018-04-15T04:29:17.968Z,80.59
2018-04-15T04:31:45.567Z,80.47
2018-04-15T04:34:13.091Z,80.52
2018-04-15T04:36:40.643Z,80.54
2018-04-15T04:39:08.585Z,80.62
2018-04-15T04:41:36.112Z,80.25
2018-04-15T04:44:03.673Z,80.31
2018-04-15T04:46:31.190Z,80.21
2018-04-15T04:48:59.017Z,80.28
2018-04-15T04:51:26.558Z,79.83
2018-04-15T04:53:54.110Z,79.67
2018-04-15T04:56:21.669Z,79.89
2018-04-15T04:58:49.467Z,79.88
2018-04-15T05:01:16.988Z,79.46
2018-04-15T05:03:44.508Z,79.55
2018-04-15T05:06:12.040Z,79.55
2018-04-15T05:08:39.645Z,79.54
2018-04-15T05:11:07.234Z,79.80
2018-04-15T05:13:34.820Z,79.51
2018-04-15T05:16:02.333Z,79.50
2018-04-15T05:18:29.946Z,79.18
2018-04-15T05:20:57.478Z,79.12
2018-04-15T05:23:25.065Z,79.40
2018-04-15T05:25:52.795Z,78.97
2018-04-15T05:28:20.322Z,78.82
2018-04-15T05:30:47.887Z,78.73
2018-04-15T05:33:15.402Z,78.82
2018-04-15T05:35:43.073Z,78.96
2018-04-15T05:38:10.664Z,78.86
2018-04-15T05:40:38.189Z,78.39
2018-04-15T05:43:05.725Z,78.38
2018-04-15T05:45:33.341Z,78.15
2018-04-15T05:48:00.899Z,78.16
2018-04-15T05:50:28.432Z,78.30
2018-04-15T05:52:55.940Z,77.95
2018-04-15T05:55:23.481Z,77.83
2018-04-15T05:57:51.055Z,77.70
2018-04-15T06:00:18.705Z,77.35
2018-04-15T06:02:46.479Z,77.24
2018-04-15T06:05:14.027Z,77.01
2018-04-15T06:07:41.551Z,76.58
2018-04-15T06:10:09.337Z,76.20
2018-04-15T06:12:36.906Z,76.05
2018-04-15T06:15:04.462Z,74.64
2018-04-15T06:17:32.320Z,73.65
2018-04-15T06:19:59.859Z,73.40
2018-04-15T06:22:27.446Z,73.47
2018-04-15T06:24:55.075Z,72.26
2018-04-15T06:27:22.610Z,72.97
2018-04-15T06:29:50.429Z,72.11
2018-04-15T06:32:18.066Z,72.81
2018-04-15T06:34:45.612Z,72.81
2018-04-15T06:37:13.424Z,72.62
2018-04-15T06:39:41.287Z,72.84
2018-04-15T06:42:08.814Z,73.09
2018-04-15T06:44:36.391Z,72.81
2018-04-15T06:47:03.945Z,72.14
2018-04-15T06:49:31.472Z,72.14
2018-04-15T06:51:59.031Z,71.74
2018-04-15T06:54:26.615Z,70.86
2018-04-15T06:56:54.385Z,70.42
2018-04-15T06:59:21.924Z,69.73
2018-04-15T07:01:49.428Z,69.29
2018-04-15T07:04:16.976Z,68.10
2018-04-15T07:06:44.498Z,68.34
2018-04-15T07:09:12.048Z,68.18
2018-04-15T07:11:39.890Z,66.68
2018-04-15T07:14:07.583Z,66.50
2018-04-15T07:16:35.201Z,66.21
2018-04-15T07:19:02.744Z,66.01
2018-04-15T07:21:30.336Z,65.97
2018-04-15T07:23:57.881Z,65.88
2018-04-15T07:26:25.478Z,65.92
2018-04-15T07:28:53.039Z,64.56
2018-04-15T07:31:20.733Z,64.00
2018-04-15T07:33:48.243Z,63.71
2018-04-15T07:36:16.053Z,64.44
2018-04-15T07:38:43.610Z,64.76
2018-04-15T07:41:11.177Z,63.76
2018-04-15T07:43:38.701Z,63.42
2018-04-15T07:46:07.066Z,63.19
2018-04-15T07:48:34.713Z,62.61
2018-04-15T07:51:02.266Z,61.98
2018-04-15T07:53:29.832Z,61.04
2018-04-15T07:55:57.383Z,60.55
2018-04-15T07:58:24.931Z,60.97
2018-04-15T08:00:52.646Z,60.82
2018-04-15T08:03:20.178Z,60.85
2018-04-15T08:05:48.242Z,60.27
2018-04-15T08:08:15.846Z,59.74
2018-04-15T08:10:43.467Z,59.00
2018-04-15T08:13:11.364Z,58.76
2018-04-15T08:15:38.882Z,58.97
2018-04-15T08:18:06.707Z,58.82
2018-04-15T08:20:34.291Z,56.71
2018-04-15T08:23:02.041Z,56.04
2018-04-15T08:25:29.575Z,56.52
2018-04-15T08:27:57.106Z,55.77
2018-04-15T08:30:24.650Z,54.44
2018-04-15T08:32:52.214Z,53.65
2018-04-15T08:35:19.758Z,51.12
2018-04-15T08:37:48.045Z,49.74
2018-04-15T08:40:15.863Z,49.42
2018-04-15T08:42:43.990Z,48.89
2018-04-15T08:45:11.559Z,47.27
2018-04-15T08:47:39.136Z,45.88
2018-04-15T08:50:07.124Z,45.20
2018-04-15T08:52:34.682Z,46.19
2018-04-15T08:55:02.343Z,45.71
2018-04-15T08:57:29.900Z,44.91
2018-04-15T08:59:57.430Z,43.93
2018-04-15T09:02:24.982Z,43.79
2018-04-15T09:04:52.816Z,44.48
2018-04-15T09:07:20.676Z,44.31
2018-04-15T09:09:48.219Z,43.83
2018-04-15T09:12:16.551Z,42.17
2018-04-15T09:14:44.122Z,41.87
2018-04-15T09:17:11.691Z,40.70
2018-04-15T09:19:39.544Z,39.69
2018-04-15T09:22:07.282Z,38.93
2018-04-15T09:24:37.088Z,37.70
2018-04-15T09:27:05.983Z,37.56
2018-04-15T09:29:34.448Z,38.14
2018-04-15T09:32:02.323Z,39.64
2018-04-15T09:34:31.712Z,38.58
2018-04-15T09:36:59.434Z,38.39
2018-04-15T09:39:27.124Z,37.33
2018-04-15T09:41:54.654Z,37.71
2018-04-15T09:44:22.195Z,36.41
2018-04-15T09:46:49.723Z,38.12
2018-04-15T09:49:17.801Z,39.31
2018-04-15T09:51:45.410Z,36.92
2018-04-15T09:54:12.988Z,38.26
2018-04-15T09:56:42.390Z,37.83
2018-04-15T09:59:10.004Z,38.55
2018-04-15T10:01:37.526Z,36.85
2018-04-15T10:04:05.090Z,36.61
2018-04-15T10:06:32.661Z,37.29
2018-04-15T10:09:00.187Z,38.33
2018-04-15T10:11:27.746Z,39.24
2018-04-15T10:13:55.560Z,38.53
2018-04-15T10:16:23.926Z,39.66
2018-04-15T10:18:51.463Z,38.45
2018-04-15T10:21:18.996Z,36.87
2018-04-15T10:23:46.579Z,34.29
2018-04-15T10:26:14.228Z,36.31
2018-04-15T10:28:42.050Z,35.65
2018-04-15T10:31:09.921Z,37.42
2018-04-15T10:33:38.238Z,36.06
2018-04-15T10:36:05.867Z,36.98
2018-04-15T10:38:33.695Z,36.80
2018-04-15T10:41:02.740Z,35.55
2018-04-15T10:43:30.872Z,33.92
2018-04-15T10:46:03.056Z,33.89
2018-04-15T10:48:31.375Z,33.16
2018-04-15T10:50:58.977Z,34.14
2018-04-15T10:53:26.515Z,33.96
2018-04-15T10:55:54.056Z,32.66
2018-04-15T10:58:21.599Z,30.94
2018-04-15T11:00:49.121Z,29.47
2018-04-15T11:03:16.717Z,28.56
2018-04-15T11:05:44.279Z,29.31
2018-04-15T11:08:11.817Z,29.77
2018-04-15T11:10:40.613Z,29.63
2018-04-15T11:13:08.173Z,30.98
2018-04-15T11:15:35.707Z,27.96
2018-04-15T11:18:03.335Z,27.36
2018-04-15T11:20:31.693Z,26.76
2018-04-15T11:22:59.217Z,26.03
2018-04-15T11:25:27.724Z,23.53
2018-04-15T11:27:55.278Z,23.32
2018-04-15T11:30:22.831Z,21.51
2018-04-15T11:32:51.696Z,22.09
2018-04-15T11:35:19.365Z,20.63
2018-04-15T11:37:46.978Z,19.55
2018-04-15T11:40:14.516Z,18.35
2018-04-15T11:42:42.057Z,18.71
2018-04-15T11:45:09.780Z,17.53
2018-04-15T11:47:37.319Z,16.62
2018-04-15T11:50:04.863Z,16.68
2018-04-15T11:52:32.445Z,16.25
2018-04-15T11:54:59.978Z,16.31
2018-04-15T11:57:27.527Z,15.61
2018-04-15T11:59:55.305Z,14.56
2018-04-15T12:02:22.913Z,14.97
2018-04-15T12:04:50.506Z,15.52
2018-04-15T12:07:18.031Z,16.55
2018-04-15T12:09:45.861Z,16.62
2018-04-15T12:12:13.447Z,17.17
2018-04-15T12:14:40.979Z,16.10
2018-04-15T12:17:08.526Z,16.24
2018-04-15T12:19:36.132Z,14.72
2018-04-15T12:22:03.688Z,14.46
2018-04-15T12:24:31.223Z,15.03
2018-04-15T12:26:58.793Z,14.73
2018-04-15T12:29:26.652Z,15.88
2018-04-15T12:31:54.199Z,16.26
2018-04-15T12:34:21.751Z,16.73
2018-04-15T12:36:49.540Z,16.79
2018-04-15T12:39:17.223Z,16.36
2018-04-15T12:41:44.948Z,15.96
2018-04-15T12:44:12.742Z,16.36
2018-04-15T12:46:40.312Z,16.12
2018-04-15T12:49:07.841Z,16.29
2018-04-15T12:51:35.422Z,17.30
2018-04-15T12:54:02.961Z,17.42
2018-04-15T12:56:30.847Z,18.32
2018-04-15T12:58:58.380Z,18.80
2018-04-15T13:01:25.900Z,19.60
2018-04-15T13:03:53.485Z,21.19
2018-04-15T13:06:21.020Z,21.95
2018-04-15T13:08:48.547Z,22.64
2018-04-15T13:11:16.077Z,22.94
2018-04-15T13:13:43.672Z,23.31
2018-04-15T13:16:11.434Z,23.79
2018-04-15T13:18:38.951Z,24.86
2018-04-15T13:21:06.528Z,24.18
2018-04-15T13:23:34.085Z,25.53
2018-04-15T13:26:01.619Z,25.60
2018-04-15T13:28:29.154Z,25.58
2018-04-15T13:30:56.716Z,25.86
2018-04-15T13:33:25.410Z,25.79
2018-04-15T13:35:53.251Z,25.88
2018-04-15T13:38:20.798Z,26.35
2018-04-15T13:40:48.401Z,27.15
2018-04-15T13:43:16.060Z,26.86
2018-04-15T13:45:43.585Z,27.20
2018-04-15T13:48:11.379Z,27.54
2018-04-15T13:50:39.890Z,28.52
2018-04-15T13:53:07.433Z,29.30
2018-04-15T13:55:35.183Z,29.80
2018-04-15T13:58:02.743Z,29.74
2018-04-15T14:00:30.304Z,29.52
2018-04-15T14:02:57.833Z,30.15
2018-04-15T14:05:25.391Z,29.74
2018-04-15T14:07:52.988Z,29.99
2018-04-15T14:10:20.853Z,29.39
2018-04-15T14:12:48.416Z,28.78
2018-04-15T14:15:16.024Z,28.01
2018-04-15T14:17:43.604Z,28.38
2018-04-15T14:20:11.719Z,27.70
2018-04-15T14:22:39.368Z,27.84
2018-04-15T14:25:06.998Z,27.59
2018-04-15T14:27:35.744Z,29.11
2018-04-15T14:30:03.704Z,29.45
2018-04-15T14:32:31.360Z,28.71
2018-04-15T14:34:58.930Z,29.09
2018-04-15T14:37:26.586Z,29.77
2018-04-15T14:39:54.514Z,29.55
2018-04-15T14:42:22.157Z,30.23
2018-04-15T14:44:49.831Z,29.67
2018-04-15T14:47:17.442Z,28.05
2018-04-15T14:49:45.211Z,26.81
2018-04-15T14:52:12.897Z,26.62
2018-04-15T14:54:40.712Z,27.60
2018-04-15T14:57:09.106Z,28.57
2018-04-15T14:59:36.697Z,28.13
2018-04-15T15:02:04.955Z,29.84
2018-04-15T15:04:32.822Z,30.01
2018-04-15T15:07:00.378Z,30.99
2018-04-15T15:09:27.992Z,31.74
2018-04-15T15:11:57.153Z,31.57
2018-04-15T15:14:24.677Z,31.60
2018-04-15T15:16:52.194Z,32.10
2018-04-15T15:19:19.805Z,30.79
2018-04-15T15:21:47.417Z,30.73
2018-04-15T15:24:14.946Z,30.70
2018-04-15T15:26:42.750Z,31.43
2018-04-15T15:29:10.519Z,31.42
2018-04-15T15:31:38.313Z,31.20
2018-04-15T15:34:06.153Z,32.49
2018-04-15T15:36:33.882Z,32.72
2018-04-15T15:39:01.424Z,32.36
2018-04-15T15:41:29.289Z,33.31
2018-04-15T15:43:56.937Z,33.94
2018-04-15T15:46:24.470Z,34.08
2018-04-15T15:48:52.561Z,34.41
2018-04-15T15:51:20.138Z,34.64
2018-04-15T15:53:47.692Z,34.75
2018-04-15T15:56:15.257Z,34.40
2018-04-15T15:58:42.823Z,34.23
2018-04-15T16:01:10.373Z,34.42
2018-04-15T16:03:37.893Z,34.63
2018-04-15T16:06:05.412Z,35.27
2018-04-15T16:08:33.018Z,35.04
2018-04-15T16:11:00.523Z,35.06
2018-04-15T16:13:28.107Z,34.69
2018-04-15T16:15:55.665Z,35.01
2018-04-15T16:18:23.531Z,35.70
2018-04-15T16:20:51.278Z,35.69
2018-04-15T16:23:18.808Z,36.22
2018-04-15T16:25:46.365Z,36.22
2018-04-15T16:28:13.889Z,36.09
2018-04-15T16:30:41.897Z,35.47
2018-04-15T16:33:09.437Z,36.54
2018-04-15T16:35:37.055Z,37.06
2018-04-15T16:38:04.680Z,37.10
2018-04-15T16:40:32.237Z,37.13
2018-04-15T16:42:59.803Z,37.09
2018-04-15T16:45:27.402Z,37.76
2018-04-15T16:47:55.014Z,38.52
2018-04-15T16:50:22.604Z,38.58
2018-04-15T16:52:50.202Z,38.44
2018-04-15T16:55:17.859Z,38.35
2018-04-15T16:57:45.397Z,36.78
2018-04-15T17:00:13.055Z,37.51
2018-04-15T17:02:40.538Z,38.06
2018-04-15T17:05:08.078Z,37.69
2018-04-15T17:07:35.603Z,38.31
2018-04-15T17:10:03.529Z,39.05
2018-04-15T17:12:31.392Z,39.37
2018-04-15T17:14:59.054Z,39.40
2018-04-15T17:17:26.940Z,39.94
2018-04-15T17:19:54.500Z,39.88
2018-04-15T17:22:22.119Z,39.50
2018-04-15T17:24:49.683Z,40.89
2018-04-15T17:27:17.226Z,40.58
2018-04-15T17:29:45.588Z,41.46
2018-04-15T17:32:13.150Z,40.87
2018-04-15T17:34:40.918Z,41.20
2018-04-15T17:37:08.468Z,42.00
2018-04-15T17:39:38.120Z,42.11
2018-04-15T17:42:05.767Z,42.07
2018-04-15T17:44:33.366Z,41.79
2018-04-15T17:47:00.962Z,42.53
2018-04-15T17:49:28.549Z,43.03
2018-04-15T17:51:56.343Z,44.44
2018-04-15T17:54:24.164Z,44.34
2018-04-15T17:56:51.815Z,44.31
2018-04-15T17:59:19.422Z,43.19
2018-04-15T18:01:47.011Z,42.84
2018-04-15T18:04:14.686Z,43.16
2018-04-15T18:06:42.293Z,42.81
2018-04-15T18:09:12.170Z,44.30
2018-04-15T18:11:42.119Z,45.14
2018-04-15T18:14:11.926Z,45.16
2018-04-15T18:16:39.784Z,45.14
2018-04-15T18:19:07.362Z,46.19
2018-04-15T18:21:34.941Z,47.08
2018-04-15T18:24:02.548Z,46.49
2018-04-15T18:26:30.109Z,44.97
2018-04-15T18:28:57.643Z,45.27
2018-04-15T18:31:25.262Z,46.70
2018-04-15T18:33:52.810Z,45.80
2018-04-15T18:36:20.416Z,46.70
2018-04-15T18:38:48.475Z,48.28
2018-04-15T18:41:16.087Z,48.36
2018-04-15T18:43:43.657Z,48.30
2018-04-15T18:46:11.200Z,49.01
2018-04-15T18:48:38.917Z,47.82
2018-04-15T18:51:06.449Z,46.99
2018-04-15T18:53:34.013Z,46.15
2018-04-15T18:56:01.620Z,46.57
2018-04-15T18:58:29.316Z,48.32
2018-04-15T19:00:56.838Z,48.07
2018-04-15T19:03:24.382Z,48.42
2018-04-15T19:05:51.946Z,48.38
2018-04-15T19:08:19.494Z,48.30
2018-04-15T19:10:47.153Z,49.63
2018-04-15T19:13:14.735Z,48.24
2018-04-15T19:15:42.446Z,49.72
2018-04-15T19:18:09.991Z,49.28
2018-04-15T19:20:37.521Z,50.05
2018-04-15T19:23:05.052Z,49.93
2018-04-15T19:25:32.570Z,50.46
2018-04-15T19:28:01.615Z,48.30
2018-04-15T19:30:29.399Z,49.64
2018-04-15T19:32:56.991Z,49.74
2018-04-15T19:35:24.568Z,48.61
2018-04-15T19:37:52.082Z,49.50
2018-04-15T19:40:20.180Z,49.57
2018-04-15T19:42:47.744Z,50.16
2018-04-15T19:45:15.449Z,49.07
2018-04-15T19:47:42.965Z,50.29
2018-04-15T19:50:10.651Z,51.10
2018-04-15T19:52:38.228Z,51.64
2018-04-15T19:55:06.179Z,51.13
2018-04-15T19:57:33.863Z,51.15
2018-04-15T20:00:02.254Z,51.52
2018-04-15T20:02:30.813Z,50.05
2018-04-15T20:04:59.787Z,50.14
2018-04-15T20:07:27.873Z,48.38
2018-04-15T20:09:55.812Z,48.48
2018-04-15T20:12:24.870Z,48.92
2018-04-15T20:14:52.432Z,48.60
2018-04-15T20:17:20.047Z,48.76
2018-04-15T20:19:47.852Z,49.46
2018-04-15T20:22:15.434Z,50.41
2018-04-15T20:24:43.054Z,50.38
2018-04-15T20:27:11.091Z,51.00
2018-04-15T20:29:38.793Z,51.02
2018-04-15T20:32:06.343Z,51.42
2018-04-15T20:34:33.970Z,51.61
2018-04-15T20:37:01.566Z,51.61
2018-04-15T20:39:29.552Z,52.77
2018-04-15T20:41:57.376Z,53.00
2018-04-15T20:44:25.002Z,53.13
2018-04-15T20:46:52.598Z,53.79
2018-04-15T20:49:20.390Z,53.93
2018-04-15T20:51:47.936Z,54.49
2018-04-15T20:54:15.476Z,54.84
2018-04-15T20:56:43.037Z,55.40
2018-04-15T20:59:10.637Z,55.38
2018-04-15T21:01:38.256Z,55.84
2018-04-15T21:04:05.839Z,56.08
2018-04-15T21:06:33.450Z,56.24
2018-04-15T21:09:00.968Z,56.56
2018-04-15T21:11:28.849Z,56.86
2018-04-15T21:13:56.421Z,56.75
2018-04-15T21:16:23.963Z,56.71
2018-04-15T21:18:52.910Z,57.21
2018-04-15T21:21:20.617Z,57.07
2018-04-15T21:23:48.200Z,57.55
2018-04-15T21:26:15.739Z,58.26
2018-04-15T21:28:43.375Z,58.34
2018-04-15T21:31:10.917Z,58.50
2018-04-15T21:33:38.499Z,58.48
2018-04-15T21:36:06.038Z,58.56
2018-04-15T21:38:33.679Z,58.72
2018-04-15T21:41:01.519Z,59.09
2018-04-15T21:43:29.028Z,59.05
2018-04-15T21:45:56.602Z,59.46
2018-04-15T21:48:24.121Z,59.73
2018-04-15T21:50:51.672Z,59.54
2018-04-15T21:53:19.524Z,59.86
2018-04-15T21:55:47.051Z,59.78
2018-04-15T21:58:14.591Z,59.67
2018-04-15T22:00:42.113Z,60.00
2018-04-15T22:03:09.663Z,60.07
2018-04-15T22:05:37.189Z,60.32
2018-04-15T22:08:04.955Z,60.68
2018-04-15T22:10:32.486Z,60.81
2018-04-15T22:13:05.061Z,60.54
2018-04-15T22:15:32.570Z,60.49
2018-04-15T22:18:00.114Z,61.17
2018-04-15T22:20:27.656Z,60.90
2018-04-15T22:22:55.279Z,61.07
2018-04-15T22:25:23.556Z,61.11
2018-04-15T22:27:51.081Z,60.90
2018-04-15T22:30:18.635Z,61.02
2018-04-15T22:32:46.195Z,60.84
2018-04-15T22:35:13.744Z,61.00
2018-04-15T22:37:41.366Z,60.71
2018-04-15T22:40:09.223Z,60.70
2018-04-15T22:42:36.783Z,61.15
2018-04-15T22:45:04.378Z,61.16
2018-04-15T22:47:31.931Z,61.48
2018-04-15T22:50:04.912Z,61.26
2018-04-15T22:52:32.447Z,61.52
2018-04-15T22:54:59.989Z,61.48
2018-04-15T22:57:27.518Z,61.24
2018-04-15T22:59:55.052Z,61.48
2018-04-15T23:02:22.619Z,61.32
2018-04-15T23:04:50.133Z,61.55
2018-04-15T23:07:17.657Z,61.49
2018-04-15T23:09:45.297Z,61.49
2018-04-15T23:12:12.821Z,61.99
2018-04-15T23:14:40.383Z,61.97
2018-04-15T23:17:07.987Z,62.03
2018-04-15T23:19:35.533Z,62.08
2018-04-15T23:22:03.131Z,62.44
2018-04-15T23:24:30.679Z,62.30
2018-04-15T23:26:58.244Z,62.24
2018-04-15T23:29:25.837Z,62.59
2018-04-15T23:31:53.344Z,62.52
2018-04-15T23:34:20.891Z,62.39
2018-04-15T23:36:48.431Z,62.41
2018-04-15T23:39:16.010Z,62.39
2018-04-15T23:41:43.774Z,62.51
2018-04-15T23:44:11.648Z,62.54
2018-04-15T23:46:39.210Z,62.64
2018-04-15T23:49:07.172Z,62.63
2018-04-15T23:51:35.044Z,62.85
2018-04-15T23:54:02.593Z,62.87
2018-04-15T23:56:30.110Z,62.97
2018-04-15T23:58:57.656Z,62.87
